Time;durP1;ratioP1;P1;durP2;ratioP2;P2;SDS_P1;SDS_P2;PMS_P1;PMS_P2;Temp;Humidity;BMP_temperature;BMP_pressure;BME280_temperature;BME280_humidity;BME280_pressure;Samples;Min_cycle;Max_cycle;Signal;HPM_P1;HPM_P2
2020/12/25 00:00:24;;;;;;;;;;;2.00;99.90;;;;;;5006705;28;20001;-61
2020/12/25 00:02:50;;;;;;;;;;;2.00;99.90;;;;;;5006501;28;19921;-61
2020/12/25 00:05:16;;;;;;;;;;;2.00;99.90;;;;;;5006755;28;20348;-62
2020/12/25 00:07:41;;;;;;;;;;;1.90;99.90;;;;;;5006726;28;19929;-62
2020/12/25 00:10:07;;;;;;;;;;;1.80;99.90;;;;;;5006709;28;19922;-61
2020/12/25 00:12:33;;;;;;;;;;;1.70;99.90;;;;;;5006778;28;19922;-61
2020/12/25 00:14:58;;;;;;;;;;;1.80;99.90;;;;;;5010774;28;19918;-61
2020/12/25 00:17:24;;;;;;;;;;;1.80;99.90;;;;;;5010562;28;20293;-61
2020/12/25 00:19:50;;;;;;;;;;;1.80;99.90;;;;;;5010801;28;19929;-61
2020/12/25 00:22:15;;;;;;;;;;;1.90;99.90;;;;;;5010679;28;19922;-62
2020/12/25 00:24:41;;;;;;;;;;;1.90;99.90;;;;;;5010886;28;20375;-61
2020/12/25 00:27:07;;;;;;;;;;;1.90;99.90;;;;;;5010786;28;19949;-61
2020/12/25 00:29:32;;;;;;;;;;;2.10;99.90;;;;;;5010688;28;19928;-61
2020/12/25 00:31:58;;;;;;;;;;;2.20;99.90;;;;;;5010667;28;19945;-61
2020/12/25 00:34:23;;;;;;;;;;;2.20;99.90;;;;;;5010757;28;19921;-62
2020/12/25 00:36:49;;;;;;;;;;;2.30;99.90;;;;;;5010583;28;20381;-62
2020/12/25 00:39:17;;;;;;;;;;;2.30;99.90;;;;;;5010639;28;19922;-61
2020/12/25 00:41:43;;;;;;;;;;;2.40;99.90;;;;;;5010448;28;19921;-61
2020/12/25 00:44:09;;;;;;;;;;;2.40;99.90;;;;;;5010390;28;19922;-61
2020/12/25 00:46:34;;;;;;;;;;;2.40;99.90;;;;;;5010355;28;19922;-61
2020/12/25 00:49:00;;;;;;;;;;;2.40;99.90;;;;;;5010053;28;19922;-62
2020/12/25 00:51:26;;;;;;;;;;;2.50;99.90;;;;;;5010400;28;19930;-62
2020/12/25 00:53:52;;;;;;;;;;;2.70;99.90;;;;;;5010480;28;19928;-61
2020/12/25 00:56:17;;;;;;;;;;;2.70;99.90;;;;;;5010308;28;19968;-61
2020/12/25 00:58:44;;;;;;;;;;;2.80;99.90;;;;;;5010186;28;19953;-61
2020/12/25 01:01:10;;;;;;;;;;;2.80;99.90;;;;;;5009970;28;19929;-62
2020/12/25 01:03:37;;;;;;;;;;;2.90;99.90;;;;;;5010146;28;20060;-62
2020/12/25 01:06:16;;;;;;;;;;;2.90;99.90;;;;;;5010225;28;19921;-62
2020/12/25 01:08:43;;;;;;;;;;;2.90;99.90;;;;;;5010148;28;19928;-62
2020/12/25 01:11:09;;;;;;;;;;;3.10;99.90;;;;;;5010088;28;19949;-61
2020/12/25 01:13:35;;;;;;;;;;;3.00;99.90;;;;;;5009867;28;19918;-62
2020/12/25 01:16:04;;;;;;;;;;;3.40;99.90;;;;;;5009850;28;19929;-62
2020/12/25 01:18:30;;;;;;;;;;;3.50;99.90;;;;;;5009792;28;19926;-62
2020/12/25 01:20:56;;;;;;;;;;;3.60;99.90;;;;;;5009714;28;19972;-63
2020/12/25 01:23:22;;;;;;;;;;;3.70;99.90;;;;;;5009858;28;19944;-63
2020/12/25 01:25:47;;;;;;;;;;;3.50;99.90;;;;;;5009599;28;19925;-62
2020/12/25 01:28:13;;;;;;;;;;;3.40;99.90;;;;;;5009688;28;19922;-62
2020/12/25 01:30:39;;;;;;;;;;;3.40;99.90;;;;;;5009574;28;19921;-62
2020/12/25 01:33:04;;;;;;;;;;;3.30;99.90;;;;;;5009715;28;19922;-62
2020/12/25 01:35:30;;;;;;;;;;;3.30;99.90;;;;;;5009528;28;20385;-63
2020/12/25 01:37:56;;;;;;;;;;;3.30;99.90;;;;;;5009697;28;19926;-62
2020/12/25 01:40:22;;;;;;;;;;;3.20;99.90;;;;;;5009466;28;19922;-62
2020/12/25 01:42:48;;;;;;;;;;;3.00;99.90;;;;;;5009302;28;19925;-62
2020/12/25 01:45:14;;;;;;;;;;;3.00;99.90;;;;;;5009213;28;19921;-62
2020/12/25 01:47:40;;;;;;;;;;;2.80;99.90;;;;;;5009286;28;20297;-62
2020/12/25 01:50:05;;;;;;;;;;;2.70;99.90;;;;;;5009105;28;19921;-62
2020/12/25 01:52:32;;;;;;;;;;;2.60;99.90;;;;;;5009357;28;19929;-62
2020/12/25 01:54:57;;;;;;;;;;;2.50;99.90;;;;;;5009077;28;19929;-62
2020/12/25 01:57:24;;;;;;;;;;;2.40;99.90;;;;;;5009196;28;19922;-62
2020/12/25 01:59:51;;;;;;;;;;;2.40;99.90;;;;;;5009127;28;20007;-62
2020/12/25 02:02:16;;;;;;;;;;;2.40;99.90;;;;;;5009087;28;19964;-62
2020/12/25 02:04:42;;;;;;;;;;;2.30;99.90;;;;;;5009102;28;19922;-62
2020/12/25 02:07:08;;;;;;;;;;;2.30;99.90;;;;;;5008908;28;19940;-62
2020/12/25 02:09:33;;;;;;;;;;;2.40;99.90;;;;;;5008979;28;19921;-62
2020/12/25 02:11:59;;;;;;;;;;;2.40;99.90;;;;;;5008794;28;20016;-62
2020/12/25 02:14:25;;;;;;;;;;;2.50;99.90;;;;;;5008641;28;20328;-62
2020/12/25 02:16:50;;;;;;;;;;;2.50;99.90;;;;;;5008907;28;19945;-62
2020/12/25 02:19:16;;;;;;;;;;;2.50;99.90;;;;;;5008770;28;19922;-62
2020/12/25 02:21:42;;;;;;;;;;;2.60;99.90;;;;;;5008546;28;19948;-62
2020/12/25 02:24:08;;;;;;;;;;;2.60;99.90;;;;;;5008516;28;19988;-62
2020/12/25 02:26:34;;;;;;;;;;;2.60;99.90;;;;;;5008576;28;19921;-62
2020/12/25 02:29:00;;;;;;;;;;;2.70;99.90;;;;;;5008533;28;19929;-62
2020/12/25 02:31:26;;;;;;;;;;;2.60;99.90;;;;;;5008459;28;19921;-62
2020/12/25 02:33:51;;;;;;;;;;;2.60;99.90;;;;;;5008424;28;19926;-62
2020/12/25 02:36:17;;;;;;;;;;;2.60;99.90;;;;;;5007835;28;19922;-62
2020/12/25 02:38:43;;;;;;;;;;;2.60;99.90;;;;;;5008444;28;19922;-62
2020/12/25 02:41:09;;;;;;;;;;;2.60;99.90;;;;;;5008221;28;19928;-62
2020/12/25 02:43:34;;;;;;;;;;;2.70;99.90;;;;;;5008250;28;19977;-62
2020/12/25 02:46:00;;;;;;;;;;;2.60;99.90;;;;;;5008251;28;19925;-62
2020/12/25 02:48:26;;;;;;;;;;;2.70;99.90;;;;;;5008158;28;19926;-62
2020/12/25 02:50:51;;;;;;;;;;;2.50;99.90;;;;;;5008001;28;19921;-62
2020/12/25 02:53:17;;;;;;;;;;;2.30;99.90;;;;;;5008025;28;20292;-62
2020/12/25 02:55:43;;;;;;;;;;;2.30;99.90;;;;;;5008104;28;19945;-61
2020/12/25 02:58:08;;;;;;;;;;;2.30;99.90;;;;;;5008040;28;20004;-62
2020/12/25 03:00:34;;;;;;;;;;;2.20;99.90;;;;;;5007886;28;19921;-62
2020/12/25 03:02:59;;;;;;;;;;;2.10;99.90;;;;;;5008081;28;20328;-61
2020/12/25 03:05:25;;;;;;;;;;;2.10;99.90;;;;;;5007764;28;19944;-61
2020/12/25 03:07:51;;;;;;;;;;;2.10;99.90;;;;;;5007760;28;19922;-61
2020/12/25 03:10:16;;;;;;;;;;;2.10;99.90;;;;;;5007820;28;20399;-61
2020/12/25 03:12:42;;;;;;;;;;;2.00;99.90;;;;;;5007739;28;19977;-61
2020/12/25 03:15:08;;;;;;;;;;;2.00;99.90;;;;;;5007498;28;19922;-61
2020/12/25 03:17:34;;;;;;;;;;;1.90;99.90;;;;;;5007656;28;20300;-61
2020/12/25 03:19:59;;;;;;;;;;;1.90;99.90;;;;;;5007545;28;19957;-62
2020/12/25 03:22:25;;;;;;;;;;;1.90;99.90;;;;;;5007595;28;19922;-61
2020/12/25 03:24:51;;;;;;;;;;;1.90;99.90;;;;;;5022611;28;19971;-61
2020/12/25 03:27:16;;;;;;;;;;;1.90;99.90;;;;;;5007347;28;19989;-60
2020/12/25 03:29:42;;;;;;;;;;;2.00;99.90;;;;;;5007397;28;19946;-61
2020/12/25 03:32:08;;;;;;;;;;;2.10;99.90;;;;;;5007503;28;19996;-61
2020/12/25 03:34:33;;;;;;;;;;;2.10;99.90;;;;;;5007273;28;19922;-60
2020/12/25 03:36:59;;;;;;;;;;;2.10;99.90;;;;;;5007433;28;19969;-60
2020/12/25 03:39:25;;;;;;;;;;;2.00;99.90;;;;;;5007308;28;19937;-60
2020/12/25 03:41:53;;;;;;;;;;;2.10;99.90;;;;;;5007126;28;19922;-60
2020/12/25 03:44:19;;;;;;;;;;;2.10;99.90;;;;;;5007177;28;19922;-61
2020/12/25 03:46:45;;;;;;;;;;;2.00;99.90;;;;;;5007438;28;19949;-60
2020/12/25 03:49:11;;;;;;;;;;;1.90;99.90;;;;;;5006211;28;19922;-60
2020/12/25 03:51:36;;;;;;;;;;;1.90;99.90;;;;;;5007245;28;20012;-60
2020/12/25 03:54:02;;;;;;;;;;;1.90;99.90;;;;;;5007108;28;19921;-61
2020/12/25 03:56:27;;;;;;;;;;;2.00;99.90;;;;;;5007258;28;19922;-61
2020/12/25 03:58:53;;;;;;;;;;;2.00;99.90;;;;;;5006964;28;19922;-61
2020/12/25 04:01:19;;;;;;;;;;;2.00;99.90;;;;;;5006914;28;19961;-61
2020/12/25 04:03:44;;;;;;;;;;;2.10;99.90;;;;;;5006924;28;19922;-61
2020/12/25 04:06:10;;;;;;;;;;;2.10;99.90;;;;;;5006917;28;19917;-61
2020/12/25 04:08:36;;;;;;;;;;;2.30;99.90;;;;;;5006915;28;19925;-61
2020/12/25 04:11:01;;;;;;;;;;;2.30;99.90;;;;;;5007027;28;19929;-61
2020/12/25 04:13:27;;;;;;;;;;;2.30;99.90;;;;;;5006993;28;20003;-61
2020/12/25 04:15:53;;;;;;;;;;;2.30;99.90;;;;;;5006774;28;19921;-61
2020/12/25 04:18:18;;;;;;;;;;;2.50;99.90;;;;;;5006694;28;20357;-61
2020/12/25 04:20:44;;;;;;;;;;;2.50;99.90;;;;;;5006865;28;19922;-61
2020/12/25 04:23:09;;;;;;;;;;;2.70;99.90;;;;;;5006746;28;19945;-61
2020/12/25 04:25:35;;;;;;;;;;;3.30;99.90;;;;;;5006869;28;19949;-61
2020/12/25 04:28:01;;;;;;;;;;;3.10;99.90;;;;;;5006930;28;19922;-61
2020/12/25 04:30:26;;;;;;;;;;;3.30;99.90;;;;;;5006766;28;19925;-62
2020/12/25 04:32:52;;;;;;;;;;;3.40;99.60;;;;;;5006840;28;19928;-64
2020/12/25 04:35:17;;;;;;;;;;;3.30;99.60;;;;;;5006643;28;19929;-60
2020/12/25 04:37:43;;;;;;;;;;;3.30;99.90;;;;;;5006667;28;19929;-62
2020/12/25 04:40:09;;;;;;;;;;;3.30;99.90;;;;;;5006694;28;19929;-60
2020/12/25 04:42:39;;;;;;;;;;;3.10;99.90;;;;;;5006755;28;19929;-61
2020/12/25 04:45:05;;;;;;;;;;;3.10;99.90;;;;;;5006603;28;19921;-60
2020/12/25 04:47:34;;;;;;;;;;;3.00;99.90;;;;;;5006573;28;20075;-60
2020/12/25 04:50:00;;;;;;;;;;;2.90;99.90;;;;;;5006585;28;19985;-60
2020/12/25 04:52:26;;;;;;;;;;;2.80;99.90;;;;;;5006545;28;19933;-60
2020/12/25 04:54:52;;;;;;;;;;;2.80;99.90;;;;;;5006469;28;19932;-60
2020/12/25 04:57:17;;;;;;;;;;;2.80;99.90;;;;;;5006598;28;19976;-62
2020/12/25 04:59:43;;;;;;;;;;;2.80;99.90;;;;;;5008150;28;19985;-62
2020/12/25 05:02:09;;;;;;;;;;;2.90;99.90;;;;;;5010095;28;20323;-62
2020/12/25 05:04:34;;;;;;;;;;;2.90;99.90;;;;;;5010161;28;19921;-61
2020/12/25 05:07:00;;;;;;;;;;;2.80;99.90;;;;;;5010124;28;19943;-61
2020/12/25 05:09:26;;;;;;;;;;;2.80;99.90;;;;;;5010073;28;19986;-61
2020/12/25 05:11:53;;;;;;;;;;;2.80;99.90;;;;;;5010162;28;19960;-61
2020/12/25 05:14:19;;;;;;;;;;;2.80;99.90;;;;;;5009932;28;19928;-61
2020/12/25 05:16:46;;;;;;;;;;;2.70;99.90;;;;;;5009944;28;19961;-61
2020/12/25 05:19:13;;;;;;;;;;;2.60;99.90;;;;;;5009710;28;19988;-60
2020/12/25 05:21:41;;;;;;;;;;;2.60;99.90;;;;;;5009712;28;20381;-60
2020/12/25 05:24:08;;;;;;;;;;;2.60;99.90;;;;;;5009729;28;20021;-60
2020/12/25 05:26:34;;;;;;;;;;;2.60;99.90;;;;;;5009687;28;19921;-61
2020/12/25 05:29:00;;;;;;;;;;;2.60;99.90;;;;;;5009638;28;19922;-60
2020/12/25 05:31:26;;;;;;;;;;;2.60;99.90;;;;;;5009540;28;20432;-60
2020/12/25 05:33:55;;;;;;;;;;;2.60;99.90;;;;;;5009489;28;19945;-60
2020/12/25 05:36:26;;;;;;;;;;;2.60;99.90;;;;;;5009577;28;19922;-61
2020/12/25 05:38:52;;;;;;;;;;;2.50;99.90;;;;;;5009531;28;19921;-60
2020/12/25 05:41:18;;;;;;;;;;;2.50;99.90;;;;;;5009364;28;19928;-61
2020/12/25 05:43:48;;;;;;;;;;;2.40;99.90;;;;;;5009338;28;19926;-60
2020/12/25 05:46:14;;;;;;;;;;;2.40;99.90;;;;;;5009365;28;19922;-61
2020/12/25 05:48:39;;;;;;;;;;;2.40;99.90;;;;;;5009199;28;19976;-61
2020/12/25 05:51:08;;;;;;;;;;;2.40;99.90;;;;;;5009006;28;19945;-61
2020/12/25 05:53:35;;;;;;;;;;;2.40;99.90;;;;;;5009208;28;19922;-61
2020/12/25 05:56:01;;;;;;;;;;;2.30;99.90;;;;;;5009091;28;19924;-61
2020/12/25 05:58:30;;;;;;;;;;;2.40;99.90;;;;;;5009299;28;20377;-61
2020/12/25 06:00:55;;;;;;;;;;;2.40;99.90;;;;;;5009007;28;19922;-61
2020/12/25 06:03:21;;;;;;;;;;;2.40;99.90;;;;;;5008954;28;19928;-61
2020/12/25 06:05:49;;;;;;;;;;;2.20;99.90;;;;;;5009053;28;19922;-61
2020/12/25 06:08:19;;;;;;;;;;;2.20;99.90;;;;;;5008924;28;19957;-61
2020/12/25 06:10:45;;;;;;;;;;;2.10;99.90;;;;;;5007905;28;19922;-61
2020/12/25 06:13:15;;;;;;;;;;;2.10;99.90;;;;;;5009236;28;19921;-61
2020/12/25 06:15:48;;;;;;;;;;;2.10;99.90;;;;;;5008811;28;20382;-61
2020/12/25 06:18:18;;;;;;;;;;;2.10;99.90;;;;;;5008745;28;19929;-61
2020/12/25 06:20:54;;;;;;;;;;;2.10;99.90;;;;;;5008659;28;19948;-61
2020/12/25 06:23:20;;;;;;;;;;;2.10;99.90;;;;;;5008503;28;19956;-61
2020/12/25 06:25:50;;;;;;;;;;;2.20;99.90;;;;;;5008621;28;20386;-61
2020/12/25 06:28:17;;;;;;;;;;;2.40;99.90;;;;;;5008528;28;19929;-61
2020/12/25 06:30:43;;;;;;;;;;;2.40;99.90;;;;;;5008783;28;19929;-61
2020/12/25 06:33:09;;;;;;;;;;;2.40;99.90;;;;;;5008415;28;19921;-61
2020/12/25 06:35:37;;;;;;;;;;;2.40;99.90;;;;;;5008527;28;19932;-61
2020/12/25 06:38:13;;;;;;;;;;;2.40;99.90;;;;;;5008287;28;19928;-61
2020/12/25 06:40:40;;;;;;;;;;;2.40;99.90;;;;;;5008734;28;19944;-61
2020/12/25 06:43:15;;;;;;;;;;;2.20;99.90;;;;;;5008127;28;19921;-61
2020/12/25 06:45:42;;;;;;;;;;;2.30;99.90;;;;;;5008290;28;19921;-61
2020/12/25 06:48:28;;;;;;;;;;;2.30;99.90;;;;;;5008308;28;19922;-61
2020/12/25 06:51:01;;;;;;;;;;;2.20;99.90;;;;;;5007759;28;19922;-61
2020/12/25 06:53:35;;;;;;;;;;;2.20;99.90;;;;;;5008092;28;19926;-61
2020/12/25 06:56:11;;;;;;;;;;;2.20;99.90;;;;;;5008083;28;19922;-61
2020/12/25 06:58:39;;;;;;;;;;;2.50;99.90;;;;;;5008008;28;19929;-61
2020/12/25 07:01:05;;;;;;;;;;;2.70;99.90;;;;;;5007811;28;19925;-61
2020/12/25 07:03:38;;;;;;;;;;;2.50;99.90;;;;;;5007921;28;20024;-61
2020/12/25 07:06:05;;;;;;;;;;;2.40;99.90;;;;;;5008007;28;19929;-61
2020/12/25 07:08:31;;;;;;;;;;;2.30;99.90;;;;;;5008000;28;19926;-61
2020/12/25 07:11:00;;;;;;;;;;;2.10;99.90;;;;;;5007753;28;20016;-61
2020/12/25 07:13:25;;;;;;;;;;;2.00;99.90;;;;;;5007578;28;19922;-61
2020/12/25 07:15:51;;;;;;;;;;;2.00;99.90;;;;;;5007595;28;19928;-61
2020/12/25 07:18:17;;;;;;;;;;;2.00;99.90;;;;;;5007476;28;19985;-61
2020/12/25 07:20:43;;;;;;;;;;;1.90;99.90;;;;;;5007527;28;19921;-64
2020/12/25 07:23:08;;;;;;;;;;;2.00;99.90;;;;;;5007294;28;20410;-64
2020/12/25 07:25:40;;;;;;;;;;;2.00;99.90;;;;;;5007386;28;19949;-61
2020/12/25 07:28:06;;;;;;;;;;;2.10;99.90;;;;;;5007345;28;19933;-64
2020/12/25 07:30:32;;;;;;;;;;;2.10;99.90;;;;;;5007323;28;19921;-64
2020/12/25 07:32:58;;;;;;;;;;;2.20;99.90;;;;;;5007205;28;19922;-62
2020/12/25 07:35:23;;;;;;;;;;;2.20;99.90;;;;;;5007226;28;19941;-62
2020/12/25 07:37:53;;;;;;;;;;;2.10;99.90;;;;;;5007224;28;19922;-62
2020/12/25 07:40:18;;;;;;;;;;;2.00;99.90;;;;;;5007267;28;19933;-62
2020/12/25 07:42:44;;;;;;;;;;;2.00;99.90;;;;;;5006932;28;20041;-62
2020/12/25 07:45:09;;;;;;;;;;;2.20;99.90;;;;;;5007208;28;19925;-63
2020/12/25 07:47:39;;;;;;;;;;;2.00;99.90;;;;;;5006995;28;19932;-60
2020/12/25 07:50:05;;;;;;;;;;;1.90;99.90;;;;;;5006916;28;19921;-61
2020/12/25 07:52:31;;;;;;;;;;;1.70;99.90;;;;;;5007195;28;19933;-62
2020/12/25 07:54:56;;;;;;;;;;;1.60;99.90;;;;;;5006937;28;19922;-62
2020/12/25 07:57:22;;;;;;;;;;;1.50;99.90;;;;;;5006689;28;19929;-64
2020/12/25 07:59:49;;;;;;;;;;;1.50;99.90;;;;;;5006886;28;19922;-62
2020/12/25 08:02:16;;;;;;;;;;;1.40;99.90;;;;;;5006815;28;20055;-62
2020/12/25 08:04:44;;;;;;;;;;;1.30;99.90;;;;;;5006812;28;19972;-65
2020/12/25 08:07:09;;;;;;;;;;;1.40;99.90;;;;;;5007047;28;19922;-62
2020/12/25 08:09:37;;;;;;;;;;;1.40;99.90;;;;;;5006842;28;19967;-61
2020/12/25 08:12:04;;;;;;;;;;;1.40;99.90;;;;;;5006768;28;19922;-62
2020/12/25 08:14:30;;;;;;;;;;;1.40;99.90;;;;;;5006728;28;19918;-61
2020/12/25 08:16:56;;;;;;;;;;;1.40;99.90;;;;;;5006828;28;19948;-61
2020/12/25 08:19:21;;;;;;;;;;;1.40;99.90;;;;;;5006776;28;19942;-63
2020/12/25 08:21:47;;;;;;;;;;;1.20;99.90;;;;;;5021888;28;19953;-61
2020/12/25 08:24:12;;;;;;;;;;;1.10;99.90;;;;;;5006651;28;19922;-63
2020/12/25 08:26:39;;;;;;;;;;;1.00;99.90;;;;;;5006711;28;19922;-62
2020/12/25 08:29:05;;;;;;;;;;;0.90;99.90;;;;;;5006626;28;19922;-63
2020/12/25 08:31:35;;;;;;;;;;;0.80;99.90;;;;;;5006870;28;19928;-63
2020/12/25 08:34:00;;;;;;;;;;;0.80;99.90;;;;;;5007207;28;19926;-61
2020/12/25 08:36:27;;;;;;;;;;;0.80;99.90;;;;;;5010714;28;20013;-65
2020/12/25 08:38:53;;;;;;;;;;;0.80;99.90;;;;;;5010655;28;19922;-62
2020/12/25 08:41:18;;;;;;;;;;;0.80;99.90;;;;;;5010335;28;20296;-63
2020/12/25 08:43:44;;;;;;;;;;;1.10;99.90;;;;;;5010379;28;19945;-63
2020/12/25 08:46:09;;;;;;;;;;;1.30;99.90;;;;;;5010509;28;19922;-61
2020/12/25 08:48:49;;;;;;;;;;;1.50;99.90;;;;;;5010106;28;19937;-61
2020/12/25 08:51:15;;;;;;;;;;;1.70;99.90;;;;;;5010173;28;20009;-62
2020/12/25 08:53:50;;;;;;;;;;;2.10;99.90;;;;;;5010222;28;19960;-62
2020/12/25 08:56:20;;;;;;;;;;;2.30;99.90;;;;;;5010135;28;19922;-61
2020/12/25 08:58:54;;;;;;;;;;;2.50;99.90;;;;;;5010089;28;19929;-61
2020/12/25 09:01:20;;;;;;;;;;;2.70;99.90;;;;;;5010006;28;19957;-62
2020/12/25 09:03:46;;;;;;;;;;;2.70;99.90;;;;;;5009825;28;19988;-62
2020/12/25 09:06:12;;;;;;;;;;;2.60;99.90;;;;;;5009899;28;19921;-62
2020/12/25 09:08:38;;;;;;;;;;;2.70;99.90;;;;;;5010117;28;19921;-62
2020/12/25 09:11:08;;;;;;;;;;;2.80;99.90;;;;;;5009851;28;19922;-62
2020/12/25 09:13:33;;;;;;;;;;;2.70;99.90;;;;;;5009816;28;19928;-62
2020/12/25 09:15:59;;;;;;;;;;;2.80;99.90;;;;;;5009722;28;20012;-62
2020/12/25 09:18:25;;;;;;;;;;;3.00;99.90;;;;;;5009730;28;19929;-63
2020/12/25 09:20:50;;;;;;;;;;;3.40;99.90;;;;;;5009546;28;19956;-63
2020/12/25 09:23:16;;;;;;;;;;;3.60;99.90;;;;;;5009684;28;19976;-63
2020/12/25 09:25:41;;;;;;;;;;;3.90;99.90;;;;;;5009597;28;19929;-63
2020/12/25 09:28:07;;;;;;;;;;;4.00;99.90;;;;;;5009604;28;19922;-63
2020/12/25 09:30:33;;;;;;;;;;;4.00;99.90;;;;;;5009383;28;20309;-63
2020/12/25 09:32:58;;;;;;;;;;;3.90;99.90;;;;;;5009358;28;20369;-63
2020/12/25 09:35:24;;;;;;;;;;;4.00;99.90;;;;;;5009594;28;19980;-63
2020/12/25 09:37:50;;;;;;;;;;;4.00;99.90;;;;;;5009374;28;20008;-62
2020/12/25 09:40:15;;;;;;;;;;;4.10;99.90;;;;;;5009230;28;20016;-67
2020/12/25 09:42:41;;;;;;;;;;;4.20;99.90;;;;;;5009345;28;19922;-66
2020/12/25 09:45:07;;;;;;;;;;;4.30;99.90;;;;;;5008378;28;19922;-63
2020/12/25 09:47:32;;;;;;;;;;;4.10;99.90;;;;;;5008472;28;19945;-63
2020/12/25 09:49:58;;;;;;;;;;;4.00;99.90;;;;;;5009093;28;19922;-63
2020/12/25 09:52:24;;;;;;;;;;;3.90;99.90;;;;;;5009098;28;20008;-63
2020/12/25 09:54:50;;;;;;;;;;;3.80;99.90;;;;;;5009059;28;19985;-63
2020/12/25 09:57:15;;;;;;;;;;;3.70;99.90;;;;;;5008896;28;19918;-63
2020/12/25 09:59:41;;;;;;;;;;;3.60;99.90;;;;;;5008893;28;19922;-63
2020/12/25 10:02:06;;;;;;;;;;;3.50;99.90;;;;;;5008944;28;19928;-62
2020/12/25 10:04:32;;;;;;;;;;;3.50;99.90;;;;;;5008890;28;19967;-61
2020/12/25 10:06:58;;;;;;;;;;;3.40;99.90;;;;;;5008906;28;19922;-60
2020/12/25 10:09:23;;;;;;;;;;;3.50;99.90;;;;;;5009181;28;19922;-65
2020/12/25 10:11:52;;;;;;;;;;;3.40;99.90;;;;;;5009088;28;19928;-65
2020/12/25 10:14:17;;;;;;;;;;;3.30;99.90;;;;;;5008944;28;19928;-64
2020/12/25 10:16:43;;;;;;;;;;;3.20;99.90;;;;;;5008756;28;19949;-62
2020/12/25 10:19:09;;;;;;;;;;;3.10;99.90;;;;;;5008584;28;19928;-62
2020/12/25 10:21:34;;;;;;;;;;;3.10;99.90;;;;;;5008728;28;19952;-62
2020/12/25 10:24:00;;;;;;;;;;;3.10;99.90;;;;;;5008429;28;19933;-61
2020/12/25 10:26:25;;;;;;;;;;;3.20;99.90;;;;;;5008608;28;19933;-61
2020/12/25 10:28:51;;;;;;;;;;;3.50;99.90;;;;;;5008529;28;19922;-61
2020/12/25 10:31:17;;;;;;;;;;;3.70;99.90;;;;;;5008465;28;19933;-61
2020/12/25 10:33:42;;;;;;;;;;;3.80;99.90;;;;;;5008343;28;19926;-64
2020/12/25 10:36:08;;;;;;;;;;;3.90;99.90;;;;;;5008512;28;19922;-61
2020/12/25 10:38:34;;;;;;;;;;;3.90;99.90;;;;;;5008187;28;19941;-61
2020/12/25 10:41:00;;;;;;;;;;;3.90;99.90;;;;;;5008202;28;19928;-61
2020/12/25 10:43:26;;;;;;;;;;;4.00;99.90;;;;;;5007997;28;19952;-61
2020/12/25 10:45:51;;;;;;;;;;;3.90;99.90;;;;;;5008210;28;19922;-61
2020/12/25 10:48:17;;;;;;;;;;;3.90;99.90;;;;;;5008023;28;19922;-61
2020/12/25 10:50:44;;;;;;;;;;;3.80;99.90;;;;;;5008244;28;19921;-61
2020/12/25 10:53:09;;;;;;;;;;;3.70;99.90;;;;;;5007860;28;19925;-60
2020/12/25 10:55:37;;;;;;;;;;;3.70;99.90;;;;;;5008075;28;19921;-60
2020/12/25 10:58:03;;;;;;;;;;;3.80;99.90;;;;;;5007385;28;19949;-60
2020/12/25 11:00:29;;;;;;;;;;;4.00;99.90;;;;;;5007759;28;20312;-60
2020/12/25 11:02:54;;;;;;;;;;;4.20;99.90;;;;;;5007751;28;19922;-61
2020/12/25 11:05:20;;;;;;;;;;;4.50;99.90;;;;;;5007861;28;19921;-61
2020/12/25 11:07:45;;;;;;;;;;;4.60;99.90;;;;;;5007758;28;19926;-61
2020/12/25 11:10:11;;;;;;;;;;;4.80;99.90;;;;;;5007635;28;19918;-61
2020/12/25 11:12:37;;;;;;;;;;;4.90;99.90;;;;;;5007636;28;19933;-61
2020/12/25 11:15:02;;;;;;;;;;;5.10;99.90;;;;;;5007500;28;19952;-61
2020/12/25 11:17:28;;;;;;;;;;;5.20;99.90;;;;;;5007467;28;19941;-62
2020/12/25 11:19:55;;;;;;;;;;;5.30;99.90;;;;;;5007605;28;19989;-62
2020/12/25 11:22:22;;;;;;;;;;;5.40;99.90;;;;;;5007226;28;20038;-62
2020/12/25 11:24:47;;;;;;;;;;;5.40;99.90;;;;;;5007457;28;19960;-62
2020/12/25 11:27:13;;;;;;;;;;;5.50;99.90;;;;;;5007427;28;19921;-62
2020/12/25 11:29:39;;;;;;;;;;;5.60;99.90;;;;;;5007519;28;20008;-62
2020/12/25 11:32:04;;;;;;;;;;;5.70;99.60;;;;;;5007338;28;19976;-62
2020/12/25 11:34:30;;;;;;;;;;;5.70;98.80;;;;;;5007451;28;19922;-62
2020/12/25 11:36:56;;;;;;;;;;;5.80;98.90;;;;;;5007148;28;19961;-62
2020/12/25 11:39:21;;;;;;;;;;;5.90;99.90;;;;;;5007475;28;20282;-62
2020/12/25 11:41:47;;;;;;;;;;;6.30;97.90;;;;;;5007164;28;19922;-62
2020/12/25 11:44:13;;;;;;;;;;;6.80;99.70;;;;;;5007073;28;19922;-62
2020/12/25 11:46:38;;;;;;;;;;;7.30;96.70;;;;;;5007322;28;19922;-63
2020/12/25 11:49:06;;;;;;;;;;;7.70;96.90;;;;;;5007254;28;19929;-62
2020/12/25 11:51:32;;;;;;;;;;;8.10;97.80;;;;;;5006759;28;19922;-62
2020/12/25 11:53:58;;;;;;;;;;;8.30;94.90;;;;;;5007027;28;19925;-62
2020/12/25 11:56:31;;;;;;;;;;;8.50;96.10;;;;;;5007214;28;19952;-62
2020/12/25 11:58:57;;;;;;;;;;;8.30;91.20;;;;;;5007159;28;19925;-62
2020/12/25 12:01:23;;;;;;;;;;;8.30;95.00;;;;;;5006946;28;19960;-62
2020/12/25 12:03:48;;;;;;;;;;;8.20;92.30;;;;;;5006969;28;19922;-62
2020/12/25 12:06:21;;;;;;;;;;;8.30;94.20;;;;;;5006905;28;20008;-62
2020/12/25 12:08:47;;;;;;;;;;;8.50;94.40;;;;;;5006174;28;19922;-62
2020/12/25 12:11:13;;;;;;;;;;;8.70;93.10;;;;;;5007082;28;19953;-62
2020/12/25 12:13:39;;;;;;;;;;;8.90;94.50;;;;;;5006969;28;20031;-62
2020/12/25 12:16:04;;;;;;;;;;;8.80;94.50;;;;;;5006878;28;19922;-62
2020/12/25 12:18:30;;;;;;;;;;;9.00;93.60;;;;;;5006852;28;19922;-62
2020/12/25 12:20:56;;;;;;;;;;;8.90;92.70;;;;;;5006770;28;19925;-62
2020/12/25 12:23:22;;;;;;;;;;;8.90;90.60;;;;;;5006814;28;19921;-62
2020/12/25 12:25:47;;;;;;;;;;;9.20;93.90;;;;;;5006858;28;19922;-62
2020/12/25 12:28:13;;;;;;;;;;;9.30;91.40;;;;;;5006748;28;20293;-62
2020/12/25 12:30:39;;;;;;;;;;;9.40;93.00;;;;;;5006698;28;19985;-63
2020/12/25 12:33:04;;;;;;;;;;;9.00;91.50;;;;;;5006731;28;19921;-62
2020/12/25 12:35:30;;;;;;;;;;;8.60;91.90;;;;;;5021656;28;19917;-62
2020/12/25 12:37:56;;;;;;;;;;;8.20;92.70;;;;;;5006651;28;19964;-62
2020/12/25 12:40:21;;;;;;;;;;;7.50;92.90;;;;;;5006731;28;19929;-62
2020/12/25 12:42:47;;;;;;;;;;;7.00;93.20;;;;;;5006431;28;19969;-62
2020/12/25 12:45:13;;;;;;;;;;;6.80;94.40;;;;;;5006382;28;19949;-61
2020/12/25 12:47:39;;;;;;;;;;;6.50;95.40;;;;;;5006545;28;19922;-61
2020/12/25 12:50:05;;;;;;;;;;;6.20;95.20;;;;;;5006414;28;19928;-61
2020/12/25 12:52:31;;;;;;;;;;;6.00;95.90;;;;;;5006368;28;20012;-61
2020/12/25 12:54:57;;;;;;;;;;;5.80;97.30;;;;;;5006537;28;19925;-61
2020/12/25 12:57:22;;;;;;;;;;;5.60;97.10;;;;;;5006510;28;20017;-61
2020/12/25 12:59:48;;;;;;;;;;;5.50;97.70;;;;;;5006276;28;19926;-61
2020/12/25 13:02:14;;;;;;;;;;;5.60;99.90;;;;;;5006216;28;20305;-62
2020/12/25 13:04:41;;;;;;;;;;;5.30;98.80;;;;;;5006293;28;20027;-61
2020/12/25 13:07:06;;;;;;;;;;;5.70;99.90;;;;;;5006402;28;19933;-61
2020/12/25 13:09:32;;;;;;;;;;;6.40;99.90;;;;;;5006539;28;19922;-61
2020/12/25 13:11:58;;;;;;;;;;;7.20;99.90;;;;;;5006494;28;19944;-61
2020/12/25 13:14:24;;;;;;;;;;;7.40;95.10;;;;;;5006215;28;19925;-61
2020/12/25 13:16:51;;;;;;;;;;;7.50;96.20;;;;;;5006322;28;19922;-61
2020/12/25 13:19:16;;;;;;;;;;;7.20;95.40;;;;;;5006250;28;20389;-62
2020/12/25 13:21:42;;;;;;;;;;;6.80;95.10;;;;;;5009219;28;19921;-62
2020/12/25 13:24:08;;;;;;;;;;;6.50;97.20;;;;;;5009720;28;19933;-61
2020/12/25 13:26:33;;;;;;;;;;;6.40;96.60;;;;;;5009787;28;20017;-61
2020/12/25 13:28:59;;;;;;;;;;;6.20;97.10;;;;;;5009600;28;20316;-61
2020/12/25 13:31:25;;;;;;;;;;;6.00;97.70;;;;;;5009856;28;19922;-61
2020/12/25 13:33:51;;;;;;;;;;;5.90;95.80;;;;;;5009624;28;19985;-61
2020/12/25 13:36:18;;;;;;;;;;;5.80;96.10;;;;;;5009497;28;19932;-61
2020/12/25 13:38:44;;;;;;;;;;;5.60;95.80;;;;;;5009497;28;19922;-61
2020/12/25 13:41:11;;;;;;;;;;;5.50;95.70;;;;;;5009581;28;19924;-61
2020/12/25 13:43:36;;;;;;;;;;;5.40;96.20;;;;;;5009248;28;19925;-62
2020/12/25 13:46:02;;;;;;;;;;;5.30;96.30;;;;;;5009585;28;19945;-62
2020/12/25 13:48:28;;;;;;;;;;;5.00;95.70;;;;;;5009035;28;19929;-62
2020/12/25 13:50:54;;;;;;;;;;;5.00;95.90;;;;;;5009101;28;19925;-62
2020/12/25 13:53:21;;;;;;;;;;;5.00;95.40;;;;;;5009380;28;19943;-62
2020/12/25 13:55:47;;;;;;;;;;;5.00;97.10;;;;;;5009445;28;19929;-62
2020/12/25 13:58:12;;;;;;;;;;;5.00;97.00;;;;;;5009332;28;20009;-63
2020/12/25 14:00:38;;;;;;;;;;;5.10;95.50;;;;;;5009064;28;20441;-62
2020/12/25 14:03:04;;;;;;;;;;;5.20;94.60;;;;;;5008962;28;20041;-62
2020/12/25 14:05:30;;;;;;;;;;;5.10;96.20;;;;;;5009075;28;19925;-61
2020/12/25 14:07:55;;;;;;;;;;;5.10;96.80;;;;;;5009098;28;20165;-61
2020/12/25 14:10:21;;;;;;;;;;;5.10;95.90;;;;;;5009096;28;20293;-62
2020/12/25 14:12:47;;;;;;;;;;;5.00;97.10;;;;;;5009056;28;19921;-61
2020/12/25 14:15:12;;;;;;;;;;;4.90;96.70;;;;;;5008849;28;19921;-61
2020/12/25 14:17:38;;;;;;;;;;;4.90;97.40;;;;;;5008768;28;19922;-62
2020/12/25 14:20:04;;;;;;;;;;;4.80;97.20;;;;;;5008551;28;20416;-62
2020/12/25 14:22:29;;;;;;;;;;;4.80;98.70;;;;;;5008514;28;19921;-62
2020/12/25 14:24:55;;;;;;;;;;;4.90;98.80;;;;;;5008677;28;19929;-63